Weather at Calvada Meadows Airport

Public forecast

Using degrees Fahrenheit for public forecast. Weather courtesy of forecast.io.

Closest aviation weather report (METAR) to Calvada Meadows Airport

Closest report is Desert Rock Airport, 21.0 nm (38.9 km) N. Retrieved 2020/09/24 03:53 UTC (2 hours ago):

KDRA 240353Z AUTO 04004KT 10SM CLR 23/M03 A3006 RMK AO2 SLP137 T02281028

Closest aviation forecast (TAF) to Calvada Meadows Airport

Forecast is more than 12 hours old.

Closest forecast is Desert Rock Airport, 21.0 nm (38.9 km) N. Retrieved 2011/12/07 06:36 UTC (9 years ago):

TAF KDRA 070532Z 0706/0806 VRB04KT P6SM SKC